sensor_id;sensor_type;location;lat;lon;timestamp;temperature;humidity
4749;DHT22;2388;53.582;9.962;2023-03-14T00:02:08;11.60;99.90
4749;DHT22;2388;53.582;9.962;2023-03-14T00:04:35;11.60;99.90
4749;DHT22;2388;53.582;9.962;2023-03-14T00:07:00;11.50;99.90
4749;DHT22;2388;53.582;9.962;2023-03-14T00:09:26;11.50;99.90
4749;DHT22;2388;53.582;9.962;2023-03-14T00:11:53;11.50;99.90
4749;DHT22;2388;53.582;9.962;2023-03-14T00:14:18;11.50;99.90
4749;DHT22;2388;53.582;9.962;2023-03-14T00:16:47;11.40;99.90
4749;DHT22;2388;53.582;9.962;2023-03-14T00:19:12;11.40;99.90
4749;DHT22;2388;53.582;9.962;2023-03-14T00:21:38;11.40;99.90
4749;DHT22;2388;53.582;9.962;2023-03-14T00:24:03;11.40;99.90
4749;DHT22;2388;53.582;9.962;2023-03-14T00:26:29;11.40;99.90
4749;DHT22;2388;53.582;9.962;2023-03-14T00:28:55;11.40;99.90
4749;DHT22;2388;53.582;9.962;2023-03-14T00:31:20;11.40;99.90
4749;DHT22;2388;53.582;9.962;2023-03-14T00:33:46;11.50;99.90
4749;DHT22;2388;53.582;9.962;2023-03-14T00:36:17;11.50;99.90
4749;DHT22;2388;53.582;9.962;2023-03-14T00:38:45;11.50;99.90
4749;DHT22;2388;53.582;9.962;2023-03-14T00:41:16;11.50;99.90
4749;DHT22;2388;53.582;9.962;2023-03-14T00:43:41;11.50;99.90
4749;DHT22;2388;53.582;9.962;2023-03-14T00:46:07;11.50;99.90
4749;DHT22;2388;53.582;9.962;2023-03-14T00:48:33;11.50;99.90
4749;DHT22;2388;53.582;9.962;2023-03-14T00:50:59;11.50;99.90
4749;DHT22;2388;53.582;9.962;2023-03-14T00:53:24;11.50;99.90
4749;DHT22;2388;53.582;9.962;2023-03-14T00:55:50;11.50;99.90
4749;DHT22;2388;53.582;9.962;2023-03-14T00:58:17;11.50;99.90
4749;DHT22;2388;53.582;9.962;2023-03-14T01:00:44;11.50;99.90
4749;DHT22;2388;53.582;9.962;2023-03-14T01:03:12;11.50;99.90
4749;DHT22;2388;53.582;9.962;2023-03-14T01:05:38;11.50;99.90
4749;DHT22;2388;53.582;9.962;2023-03-14T01:08:04;11.50;99.90
4749;DHT22;2388;53.582;9.962;2023-03-14T01:10:30;11.60;99.90
4749;DHT22;2388;53.582;9.962;2023-03-14T01:12:55;11.60;99.90
4749;DHT22;2388;53.582;9.962;2023-03-14T01:15:21;11.60;99.90
4749;DHT22;2388;53.582;9.962;2023-03-14T01:17:46;11.60;99.90
4749;DHT22;2388;53.582;9.962;2023-03-14T01:20:14;11.60;99.90
4749;DHT22;2388;53.582;9.962;2023-03-14T01:22:41;11.60;99.90
4749;DHT22;2388;53.582;9.962;2023-03-14T01:25:08;11.70;99.90
4749;DHT22;2388;53.582;9.962;2023-03-14T01:27:34;11.60;99.90
4749;DHT22;2388;53.582;9.962;2023-03-14T01:30:00;11.70;99.90
4749;DHT22;2388;53.582;9.962;2023-03-14T01:32:26;11.70;99.90
4749;DHT22;2388;53.582;9.962;2023-03-14T01:34:52;11.70;99.90
4749;DHT22;2388;53.582;9.962;2023-03-14T01:37:17;11.70;99.90
4749;DHT22;2388;53.582;9.962;2023-03-14T01:39:43;11.70;99.90
4749;DHT22;2388;53.582;9.962;2023-03-14T01:42:08;11.70;99.90
4749;DHT22;2388;53.582;9.962;2023-03-14T01:47:14;11.70;99.90
4749;DHT22;2388;53.582;9.962;2023-03-14T01:49:40;11.60;99.90
4749;DHT22;2388;53.582;9.962;2023-03-14T01:52:28;11.60;99.90
4749;DHT22;2388;53.582;9.962;2023-03-14T01:55:06;11.70;99.90
4749;DHT22;2388;53.582;9.962;2023-03-14T01:57:37;11.60;99.90
4749;DHT22;2388;53.582;9.962;2023-03-14T02:00:09;11.60;99.90
4749;DHT22;2388;53.582;9.962;2023-03-14T02:02:39;11.60;99.90
4749;DHT22;2388;53.582;9.962;2023-03-14T02:05:06;11.60;99.90
4749;DHT22;2388;53.582;9.962;2023-03-14T02:10:05;11.50;99.90
4749;DHT22;2388;53.582;9.962;2023-03-14T02:12:31;11.50;99.90
4749;DHT22;2388;53.582;9.962;2023-03-14T02:14:57;11.50;99.90
4749;DHT22;2388;53.582;9.962;2023-03-14T02:17:24;11.50;99.90
4749;DHT22;2388;53.582;9.962;2023-03-14T02:20:17;11.50;99.90
4749;DHT22;2388;53.582;9.962;2023-03-14T02:22:45;11.40;99.90
4749;DHT22;2388;53.582;9.962;2023-03-14T02:27:49;11.40;99.90
4749;DHT22;2388;53.582;9.962;2023-03-14T02:30:19;11.30;99.90
4749;DHT22;2388;53.582;9.962;2023-03-14T02:32:47;11.30;99.90
4749;DHT22;2388;53.582;9.962;2023-03-14T02:35:18;11.30;99.90
4749;DHT22;2388;53.582;9.962;2023-03-14T02:40:14;11.30;99.90
4749;DHT22;2388;53.582;9.962;2023-03-14T02:42:40;11.20;99.90
4749;DHT22;2388;53.582;9.962;2023-03-14T02:45:32;11.20;99.90
4749;DHT22;2388;53.582;9.962;2023-03-14T02:48:04;11.20;99.90
4749;DHT22;2388;53.582;9.962;2023-03-14T02:50:32;11.20;99.90
4749;DHT22;2388;53.582;9.962;2023-03-14T02:52:59;11.30;99.90
4749;DHT22;2388;53.582;9.962;2023-03-14T02:55:24;11.30;99.90
4749;DHT22;2388;53.582;9.962;2023-03-14T02:57:52;11.30;99.90
4749;DHT22;2388;53.582;9.962;2023-03-14T03:00:18;11.30;99.90
4749;DHT22;2388;53.582;9.962;2023-03-14T03:02:45;11.30;99.90
4749;DHT22;2388;53.582;9.962;2023-03-14T03:05:10;11.30;99.90
4749;DHT22;2388;53.582;9.962;2023-03-14T03:07:36;11.30;99.90
4749;DHT22;2388;53.582;9.962;2023-03-14T03:10:01;11.40;99.90
4749;DHT22;2388;53.582;9.962;2023-03-14T03:12:27;11.40;99.90
4749;DHT22;2388;53.582;9.962;2023-03-14T03:14:52;11.40;99.90
4749;DHT22;2388;53.582;9.962;2023-03-14T03:17:18;11.40;99.90
4749;DHT22;2388;53.582;9.962;2023-03-14T03:19:43;11.40;99.90
4749;DHT22;2388;53.582;9.962;2023-03-14T03:22:09;11.40;99.90
4749;DHT22;2388;53.582;9.962;2023-03-14T03:24:34;11.40;99.90
4749;DHT22;2388;53.582;9.962;2023-03-14T03:27:00;11.50;99.90
4749;DHT22;2388;53.582;9.962;2023-03-14T03:29:25;11.50;99.90
4749;DHT22;2388;53.582;9.962;2023-03-14T03:31:52;11.50;99.90
4749;DHT22;2388;53.582;9.962;2023-03-14T03:34:18;11.50;99.90
4749;DHT22;2388;53.582;9.962;2023-03-14T03:36:43;11.60;99.90
4749;DHT22;2388;53.582;9.962;2023-03-14T03:39:09;11.60;99.90
4749;DHT22;2388;53.582;9.962;2023-03-14T03:41:34;11.60;99.90
4749;DHT22;2388;53.582;9.962;2023-03-14T03:44:00;11.60;99.90
4749;DHT22;2388;53.582;9.962;2023-03-14T03:46:25;11.60;99.90
4749;DHT22;2388;53.582;9.962;2023-03-14T03:48:55;11.60;99.90
4749;DHT22;2388;53.582;9.962;2023-03-14T03:51:20;11.60;99.90
4749;DHT22;2388;53.582;9.962;2023-03-14T03:53:46;11.60;99.90
4749;DHT22;2388;53.582;9.962;2023-03-14T03:56:12;11.60;99.90
4749;DHT22;2388;53.582;9.962;2023-03-14T03:58:37;11.60;99.90
4749;DHT22;2388;53.582;9.962;2023-03-14T04:01:05;11.60;99.90
4749;DHT22;2388;53.582;9.962;2023-03-14T04:03:31;11.50;99.90
4749;DHT22;2388;53.582;9.962;2023-03-14T04:06:05;11.50;99.90
4749;DHT22;2388;53.582;9.962;2023-03-14T04:08:31;11.50;99.90
4749;DHT22;2388;53.582;9.962;2023-03-14T04:10:58;11.50;99.90
4749;DHT22;2388;53.582;9.962;2023-03-14T04:13:24;11.50;99.90
4749;DHT22;2388;53.582;9.962;2023-03-14T04:15:50;11.50;99.90
4749;DHT22;2388;53.582;9.962;2023-03-14T04:18:15;11.50;99.90
4749;DHT22;2388;53.582;9.962;2023-03-14T04:20:41;11.40;99.90
4749;DHT22;2388;53.582;9.962;2023-03-14T04:23:06;11.40;99.90
4749;DHT22;2388;53.582;9.962;2023-03-14T04:25:32;11.40;99.90
4749;DHT22;2388;53.582;9.962;2023-03-14T04:27:57;11.40;99.90
4749;DHT22;2388;53.582;9.962;2023-03-14T04:30:23;11.40;99.90
4749;DHT22;2388;53.582;9.962;2023-03-14T04:32:48;11.30;99.90
4749;DHT22;2388;53.582;9.962;2023-03-14T04:35:14;11.30;99.90
4749;DHT22;2388;53.582;9.962;2023-03-14T04:37:39;11.30;99.90
4749;DHT22;2388;53.582;9.962;2023-03-14T04:40:07;11.30;99.90
4749;DHT22;2388;53.582;9.962;2023-03-14T04:42:33;11.30;99.90
4749;DHT22;2388;53.582;9.962;2023-03-14T04:44:59;11.30;99.90
4749;DHT22;2388;53.582;9.962;2023-03-14T04:47:25;11.30;99.90
4749;DHT22;2388;53.582;9.962;2023-03-14T04:49:51;11.30;99.90
4749;DHT22;2388;53.582;9.962;2023-03-14T04:52:16;11.30;99.90
4749;DHT22;2388;53.582;9.962;2023-03-14T04:54:42;11.40;99.90
4749;DHT22;2388;53.582;9.962;2023-03-14T04:57:07;11.40;99.90
4749;DHT22;2388;53.582;9.962;2023-03-14T04:59:33;11.40;99.90
4749;DHT22;2388;53.582;9.962;2023-03-14T05:01:58;11.40;99.90
4749;DHT22;2388;53.582;9.962;2023-03-14T05:04:24;11.40;99.90
4749;DHT22;2388;53.582;9.962;2023-03-14T05:06:49;11.40;99.90
4749;DHT22;2388;53.582;9.962;2023-03-14T05:09:15;11.30;99.90
4749;DHT22;2388;53.582;9.962;2023-03-14T05:11:41;11.30;99.90
4749;DHT22;2388;53.582;9.962;2023-03-14T05:14:06;11.30;99.90
4749;DHT22;2388;53.582;9.962;2023-03-14T05:16:32;11.20;99.90
4749;DHT22;2388;53.582;9.962;2023-03-14T05:18:57;11.00;99.90
4749;DHT22;2388;53.582;9.962;2023-03-14T05:21:23;10.70;99.90
4749;DHT22;2388;53.582;9.962;2023-03-14T05:23:48;10.50;99.90
4749;DHT22;2388;53.582;9.962;2023-03-14T05:26:14;10.40;99.90
4749;DHT22;2388;53.582;9.962;2023-03-14T05:28:42;10.20;99.90
4749;DHT22;2388;53.582;9.962;2023-03-14T05:31:08;10.20;99.90
4749;DHT22;2388;53.582;9.962;2023-03-14T05:33:34;10.10;99.90
4749;DHT22;2388;53.582;9.962;2023-03-14T05:35:59;10.00;99.90
4749;DHT22;2388;53.582;9.962;2023-03-14T05:38:25;10.00;99.90
4749;DHT22;2388;53.582;9.962;2023-03-14T05:40:50;10.00;99.90
4749;DHT22;2388;53.582;9.962;2023-03-14T05:43:16;10.00;99.90
4749;DHT22;2388;53.582;9.962;2023-03-14T05:45:42;10.00;99.90
4749;DHT22;2388;53.582;9.962;2023-03-14T05:48:07;10.00;99.90
4749;DHT22;2388;53.582;9.962;2023-03-14T05:50:33;10.00;99.90
4749;DHT22;2388;53.582;9.962;2023-03-14T05:52:59;10.00;99.90
4749;DHT22;2388;53.582;9.962;2023-03-14T05:55:24;10.00;99.90
4749;DHT22;2388;53.582;9.962;2023-03-14T05:57:50;10.00;99.90
4749;DHT22;2388;53.582;9.962;2023-03-14T06:00:16;10.10;99.90
4749;DHT22;2388;53.582;9.962;2023-03-14T06:02:41;10.00;99.90
4749;DHT22;2388;53.582;9.962;2023-03-14T06:05:07;10.10;99.90
4749;DHT22;2388;53.582;9.962;2023-03-14T06:07:33;10.10;99.90
4749;DHT22;2388;53.582;9.962;2023-03-14T06:09:58;10.10;99.90
4749;DHT22;2388;53.582;9.962;2023-03-14T06:12:24;10.10;99.90
4749;DHT22;2388;53.582;9.962;2023-03-14T06:14:50;10.10;99.90
4749;DHT22;2388;53.582;9.962;2023-03-14T06:17:16;10.20;99.90
4749;DHT22;2388;53.582;9.962;2023-03-14T06:19:47;10.10;99.90
4749;DHT22;2388;53.582;9.962;2023-03-14T06:22:13;10.20;99.90
4749;DHT22;2388;53.582;9.962;2023-03-14T06:24:38;10.10;99.90
4749;DHT22;2388;53.582;9.962;2023-03-14T06:27:04;10.20;99.90
4749;DHT22;2388;53.582;9.962;2023-03-14T06:29:30;10.10;99.90
4749;DHT22;2388;53.582;9.962;2023-03-14T06:31:55;10.10;99.90
4749;DHT22;2388;53.582;9.962;2023-03-14T06:34:21;10.10;99.90
4749;DHT22;2388;53.582;9.962;2023-03-14T06:36:46;10.20;99.90
4749;DHT22;2388;53.582;9.962;2023-03-14T06:39:12;10.20;99.90
4749;DHT22;2388;53.582;9.962;2023-03-14T06:41:37;10.20;99.90
4749;DHT22;2388;53.582;9.962;2023-03-14T06:44:03;10.10;99.90
4749;DHT22;2388;53.582;9.962;2023-03-14T06:46:29;10.20;99.90
4749;DHT22;2388;53.582;9.962;2023-03-14T06:48:54;10.20;99.90
4749;DHT22;2388;53.582;9.962;2023-03-14T06:51:20;10.20;99.90
4749;DHT22;2388;53.582;9.962;2023-03-14T06:53:45;10.20;99.90
4749;DHT22;2388;53.582;9.962;2023-03-14T06:56:11;10.20;99.90
4749;DHT22;2388;53.582;9.962;2023-03-14T06:58:36;10.20;99.90
4749;DHT22;2388;53.582;9.962;2023-03-14T07:01:02;10.20;99.90
4749;DHT22;2388;53.582;9.962;2023-03-14T07:03:27;10.20;99.90
4749;DHT22;2388;53.582;9.962;2023-03-14T07:05:53;10.30;99.90
4749;DHT22;2388;53.582;9.962;2023-03-14T07:08:19;10.30;99.90
4749;DHT22;2388;53.582;9.962;2023-03-14T07:10:44;10.30;99.90
4749;DHT22;2388;53.582;9.962;2023-03-14T07:13:10;10.30;99.90
4749;DHT22;2388;53.582;9.962;2023-03-14T07:15:35;10.30;99.90
4749;DHT22;2388;53.582;9.962;2023-03-14T07:18:01;10.30;99.90
4749;DHT22;2388;53.582;9.962;2023-03-14T07:20:26;10.30;99.90
4749;DHT22;2388;53.582;9.962;2023-03-14T07:22:52;10.30;99.90
4749;DHT22;2388;53.582;9.962;2023-03-14T07:25:17;10.30;99.90
4749;DHT22;2388;53.582;9.962;2023-03-14T07:27:44;10.30;99.90
4749;DHT22;2388;53.582;9.962;2023-03-14T07:30:11;10.30;99.90
4749;DHT22;2388;53.582;9.962;2023-03-14T07:32:36;10.40;99.90
4749;DHT22;2388;53.582;9.962;2023-03-14T07:35:02;10.40;99.90
4749;DHT22;2388;53.582;9.962;2023-03-14T07:37:28;10.40;99.90
4749;DHT22;2388;53.582;9.962;2023-03-14T07:39:53;10.40;99.90
4749;DHT22;2388;53.582;9.962;2023-03-14T07:42:18;10.40;99.90
4749;DHT22;2388;53.582;9.962;2023-03-14T07:44:44;10.50;99.90
4749;DHT22;2388;53.582;9.962;2023-03-14T07:47:10;10.50;99.90
4749;DHT22;2388;53.582;9.962;2023-03-14T07:49:35;10.50;99.90
4749;DHT22;2388;53.582;9.962;2023-03-14T07:52:01;10.50;99.90
4749;DHT22;2388;53.582;9.962;2023-03-14T07:54:26;10.40;99.90
4749;DHT22;2388;53.582;9.962;2023-03-14T07:56:52;10.40;99.90
4749;DHT22;2388;53.582;9.962;2023-03-14T07:59:18;10.40;99.90
4749;DHT22;2388;53.582;9.962;2023-03-14T08:01:44;10.40;99.90
4749;DHT22;2388;53.582;9.962;2023-03-14T08:04:10;10.40;99.90
4749;DHT22;2388;53.582;9.962;2023-03-14T08:06:36;10.40;99.90
4749;DHT22;2388;53.582;9.962;2023-03-14T08:09:03;10.50;99.90
4749;DHT22;2388;53.582;9.962;2023-03-14T08:11:28;10.50;99.90
4749;DHT22;2388;53.582;9.962;2023-03-14T08:13:54;10.50;99.90
4749;DHT22;2388;53.582;9.962;2023-03-14T08:16:19;10.60;99.90
4749;DHT22;2388;53.582;9.962;2023-03-14T08:18:45;10.70;99.90
4749;DHT22;2388;53.582;9.962;2023-03-14T08:21:11;10.70;99.90
4749;DHT22;2388;53.582;9.962;2023-03-14T08:23:37;10.80;99.90
4749;DHT22;2388;53.582;9.962;2023-03-14T08:26:02;10.80;99.90
4749;DHT22;2388;53.582;9.962;2023-03-14T08:28:28;10.80;99.90
4749;DHT22;2388;53.582;9.962;2023-03-14T08:30:56;10.80;99.90
4749;DHT22;2388;53.582;9.962;2023-03-14T08:33:23;10.80;99.90
4749;DHT22;2388;53.582;9.962;2023-03-14T08:35:51;10.90;99.90
4749;DHT22;2388;53.582;9.962;2023-03-14T08:38:16;10.90;99.90
4749;DHT22;2388;53.582;9.962;2023-03-14T08:40:41;10.90;99.90
4749;DHT22;2388;53.582;9.962;2023-03-14T08:43:07;10.90;99.90
4749;DHT22;2388;53.582;9.962;2023-03-14T08:45:32;10.90;99.90
4749;DHT22;2388;53.582;9.962;2023-03-14T08:47:58;10.90;99.90
4749;DHT22;2388;53.582;9.962;2023-03-14T08:50:24;10.90;99.90
4749;DHT22;2388;53.582;9.962;2023-03-14T08:52:49;10.90;99.90
4749;DHT22;2388;53.582;9.962;2023-03-14T08:55:15;10.90;99.90
4749;DHT22;2388;53.582;9.962;2023-03-14T08:57:41;10.90;99.90
4749;DHT22;2388;53.582;9.962;2023-03-14T09:00:07;10.80;99.90
4749;DHT22;2388;53.582;9.962;2023-03-14T09:02:36;10.80;99.90
4749;DHT22;2388;53.582;9.962;2023-03-14T09:05:01;10.80;99.90
4749;DHT22;2388;53.582;9.962;2023-03-14T09:07:27;10.70;99.90
4749;DHT22;2388;53.582;9.962;2023-03-14T09:09:52;10.70;99.90
4749;DHT22;2388;53.582;9.962;2023-03-14T09:12:18;10.80;99.90
4749;DHT22;2388;53.582;9.962;2023-03-14T09:14:44;10.80;99.90
4749;DHT22;2388;53.582;9.962;2023-03-14T09:17:09;10.80;99.90
4749;DHT22;2388;53.582;9.962;2023-03-14T09:19:40;10.80;99.90
4749;DHT22;2388;53.582;9.962;2023-03-14T09:22:06;10.80;99.90
4749;DHT22;2388;53.582;9.962;2023-03-14T09:24:31;10.90;99.90
4749;DHT22;2388;53.582;9.962;2023-03-14T09:26:57;10.80;99.90
4749;DHT22;2388;53.582;9.962;2023-03-14T09:29:22;10.80;99.90
4749;DHT22;2388;53.582;9.962;2023-03-14T09:31:48;10.70;99.90
4749;DHT22;2388;53.582;9.962;2023-03-14T09:34:14;10.70;99.90
4749;DHT22;2388;53.582;9.962;2023-03-14T09:36:39;10.70;99.90
4749;DHT22;2388;53.582;9.962;2023-03-14T09:39:05;10.70;99.90
4749;DHT22;2388;53.582;9.962;2023-03-14T09:41:33;10.70;99.90
4749;DHT22;2388;53.582;9.962;2023-03-14T09:46:35;10.80;99.90
4749;DHT22;2388;53.582;9.962;2023-03-14T09:49:02;10.80;99.90
4749;DHT22;2388;53.582;9.962;2023-03-14T09:51:27;10.80;99.90
4749;DHT22;2388;53.582;9.962;2023-03-14T09:53:54;10.70;99.90
4749;DHT22;2388;53.582;9.962;2023-03-14T09:56:28;10.60;99.90
4749;DHT22;2388;53.582;9.962;2023-03-14T09:59:00;10.30;99.90
4749;DHT22;2388;53.582;9.962;2023-03-14T10:01:28;10.10;99.90
4749;DHT22;2388;53.582;9.962;2023-03-14T10:03:56;9.80;99.90
4749;DHT22;2388;53.582;9.962;2023-03-14T10:06:25;9.70;99.90
4749;DHT22;2388;53.582;9.962;2023-03-14T10:08:51;9.60;99.90
4749;DHT22;2388;53.582;9.962;2023-03-14T10:11:19;9.60;99.90
4749;DHT22;2388;53.582;9.962;2023-03-14T10:14:08;9.30;99.90
4749;DHT22;2388;53.582;9.962;2023-03-14T10:16:45;9.20;99.90
4749;DHT22;2388;53.582;9.962;2023-03-14T10:19:13;9.10;99.90
4749;DHT22;2388;53.582;9.962;2023-03-14T10:21:42;9.10;99.90
4749;DHT22;2388;53.582;9.962;2023-03-14T10:24:29;9.00;99.90
4749;DHT22;2388;53.582;9.962;2023-03-14T10:26:59;8.90;99.90
4749;DHT22;2388;53.582;9.962;2023-03-14T10:29:28;8.70;99.90
4749;DHT22;2388;53.582;9.962;2023-03-14T10:31:59;8.60;99.90
4749;DHT22;2388;53.582;9.962;2023-03-14T10:34:32;8.50;99.90
4749;DHT22;2388;53.582;9.962;2023-03-14T10:37:05;8.20;99.90
4749;DHT22;2388;53.582;9.962;2023-03-14T10:39:58;8.20;99.90
4749;DHT22;2388;53.582;9.962;2023-03-14T10:42:32;8.10;99.90
4749;DHT22;2388;53.582;9.962;2023-03-14T10:45:04;7.90;99.90
4749;DHT22;2388;53.582;9.962;2023-03-14T10:47:33;7.80;99.90
4749;DHT22;2388;53.582;9.962;2023-03-14T10:50:22;7.60;99.90
4749;DHT22;2388;53.582;9.962;2023-03-14T10:52:48;7.40;99.90
4749;DHT22;2388;53.582;9.962;2023-03-14T10:55:14;7.30;99.90
4749;DHT22;2388;53.582;9.962;2023-03-14T10:57:40;7.30;99.90
4749;DHT22;2388;53.582;9.962;2023-03-14T11:00:16;7.10;99.90
4749;DHT22;2388;53.582;9.962;2023-03-14T11:05:34;7.00;99.90
4749;DHT22;2388;53.582;9.962;2023-03-14T11:11:26;7.00;99.90
4749;DHT22;2388;53.582;9.962;2023-03-14T11:14:11;6.70;99.90
4749;DHT22;2388;53.582;9.962;2023-03-14T11:20:25;6.70;99.90
4749;DHT22;2388;53.582;9.962;2023-03-14T11:22:41;6.80;99.90
4749;DHT22;2388;53.582;9.962;2023-03-14T11:25:31;6.70;99.90
4749;DHT22;2388;53.582;9.962;2023-03-14T11:28:14;6.60;99.90
4749;DHT22;2388;53.582;9.962;2023-03-14T11:30:54;6.50;99.90
4749;DHT22;2388;53.582;9.962;2023-03-14T11:33:24;6.60;99.90
4749;DHT22;2388;53.582;9.962;2023-03-14T11:36:03;6.60;99.90
4749;DHT22;2388;53.582;9.962;2023-03-14T11:38:50;6.70;99.90
4749;DHT22;2388;53.582;9.962;2023-03-14T11:41:37;6.60;99.90
4749;DHT22;2388;53.582;9.962;2023-03-14T11:44:12;6.50;99.90
4749;DHT22;2388;53.582;9.962;2023-03-14T11:46:51;6.60;99.90
4749;DHT22;2388;53.582;9.962;2023-03-14T11:49:30;6.60;99.90
4749;DHT22;2388;53.582;9.962;2023-03-14T11:52:00;6.70;99.90
4749;DHT22;2388;53.582;9.962;2023-03-14T11:54:38;6.70;99.90
4749;DHT22;2388;53.582;9.962;2023-03-14T11:57:14;6.80;99.90
4749;DHT22;2388;53.582;9.962;2023-03-14T12:02:35;6.70;99.90
4749;DHT22;2388;53.582;9.962;2023-03-14T12:05:39;6.70;99.90
4749;DHT22;2388;53.582;9.962;2023-03-14T12:10:43;6.80;99.90
4749;DHT22;2388;53.582;9.962;2023-03-14T12:13:11;6.80;99.90
4749;DHT22;2388;53.582;9.962;2023-03-14T12:15:50;6.80;99.90
4749;DHT22;2388;53.582;9.962;2023-03-14T12:21:01;6.90;99.90
4749;DHT22;2388;53.582;9.962;2023-03-14T12:23:53;6.90;99.90
4749;DHT22;2388;53.582;9.962;2023-03-14T12:26:27;6.90;99.90
4749;DHT22;2388;53.582;9.962;2023-03-14T12:48:10;7.00;99.90
4749;DHT22;2388;53.582;9.962;2023-03-14T12:50:45;7.00;99.90
4749;DHT22;2388;53.582;9.962;2023-03-14T12:53:19;7.00;99.90
4749;DHT22;2388;53.582;9.962;2023-03-14T13:01:27;7.20;99.90
4749;DHT22;2388;53.582;9.962;2023-03-14T13:03:58;7.20;99.90
4749;DHT22;2388;53.582;9.962;2023-03-14T13:06:49;7.20;99.90
4749;DHT22;2388;53.582;9.962;2023-03-14T13:12:13;7.10;99.90
4749;DHT22;2388;53.582;9.962;2023-03-14T13:14:48;7.20;99.90
4749;DHT22;2388;53.582;9.962;2023-03-14T13:17:23;7.20;99.90
4749;DHT22;2388;53.582;9.962;2023-03-14T13:19:54;7.30;99.90
4749;DHT22;2388;53.582;9.962;2023-03-14T13:22:25;7.40;99.90
4749;DHT22;2388;53.582;9.962;2023-03-14T13:25:02;7.50;99.90
4749;DHT22;2388;53.582;9.962;2023-03-14T13:27:31;7.60;99.90
4749;DHT22;2388;53.582;9.962;2023-03-14T13:29:57;7.60;99.90
4749;DHT22;2388;53.582;9.962;2023-03-14T13:32:27;7.60;99.90
4749;DHT22;2388;53.582;9.962;2023-03-14T13:34:57;7.50;99.90
4749;DHT22;2388;53.582;9.962;2023-03-14T13:37:24;7.50;99.90
4749;DHT22;2388;53.582;9.962;2023-03-14T13:39:56;7.60;99.90
4749;DHT22;2388;53.582;9.962;2023-03-14T13:42:26;7.50;99.90
4749;DHT22;2388;53.582;9.962;2023-03-14T13:44:53;7.50;99.90
4749;DHT22;2388;53.582;9.962;2023-03-14T13:47:21;7.50;99.90
4749;DHT22;2388;53.582;9.962;2023-03-14T13:49:49;7.50;99.90
4749;DHT22;2388;53.582;9.962;2023-03-14T13:54:56;7.50;99.90
4749;DHT22;2388;53.582;9.962;2023-03-14T13:57:22;7.50;99.90
4749;DHT22;2388;53.582;9.962;2023-03-14T14:00:05;7.50;99.90
4749;DHT22;2388;53.582;9.962;2023-03-14T14:02:34;7.50;99.90
4749;DHT22;2388;53.582;9.962;2023-03-14T14:05:01;7.50;99.90
4749;DHT22;2388;53.582;9.962;2023-03-14T14:07:28;7.40;99.90
4749;DHT22;2388;53.582;9.962;2023-03-14T14:09:54;7.40;99.90
4749;DHT22;2388;53.582;9.962;2023-03-14T14:15:04;7.30;99.90
4749;DHT22;2388;53.582;9.962;2023-03-14T14:20:02;7.40;99.90
4749;DHT22;2388;53.582;9.962;2023-03-14T14:22:30;7.50;99.90
4749;DHT22;2388;53.582;9.962;2023-03-14T14:24:57;7.50;99.90
4749;DHT22;2388;53.582;9.962;2023-03-14T14:27:33;7.40;99.90
4749;DHT22;2388;53.582;9.962;2023-03-14T14:32:52;7.20;99.90
4749;DHT22;2388;53.582;9.962;2023-03-14T14:35:32;7.20;99.90
4749;DHT22;2388;53.582;9.962;2023-03-14T14:37:58;7.20;99.90
4749;DHT22;2388;53.582;9.962;2023-03-14T14:40:26;7.30;99.90
4749;DHT22;2388;53.582;9.962;2023-03-14T14:42:52;7.20;99.90
4749;DHT22;2388;53.582;9.962;2023-03-14T14:45:23;7.20;99.90
4749;DHT22;2388;53.582;9.962;2023-03-14T14:50:34;7.30;99.90
4749;DHT22;2388;53.582;9.962;2023-03-14T14:53:18;7.40;99.90
4749;DHT22;2388;53.582;9.962;2023-03-14T14:55:45;7.40;99.90
4749;DHT22;2388;53.582;9.962;2023-03-14T14:58:28;7.40;99.90
4749;DHT22;2388;53.582;9.962;2023-03-14T15:01:03;7.40;99.90
4749;DHT22;2388;53.582;9.962;2023-03-14T15:03:31;7.40;99.90
4749;DHT22;2388;53.582;9.962;2023-03-14T15:05:57;7.40;99.90
4749;DHT22;2388;53.582;9.962;2023-03-14T15:08:25;7.30;99.90
4749;DHT22;2388;53.582;9.962;2023-03-14T15:10:51;7.40;99.90
4749;DHT22;2388;53.582;9.962;2023-03-14T15:13:17;7.40;99.90
4749;DHT22;2388;53.582;9.962;2023-03-14T15:15:43;7.50;99.90
4749;DHT22;2388;53.582;9.962;2023-03-14T15:18:15;7.60;99.90
4749;DHT22;2388;53.582;9.962;2023-03-14T15:20:42;7.60;99.90
4749;DHT22;2388;53.582;9.962;2023-03-14T15:23:15;7.60;99.90
4749;DHT22;2388;53.582;9.962;2023-03-14T15:25:42;7.50;99.90
4749;DHT22;2388;53.582;9.962;2023-03-14T15:28:20;7.50;99.90
4749;DHT22;2388;53.582;9.962;2023-03-14T15:30:48;7.50;99.90
4749;DHT22;2388;53.582;9.962;2023-03-14T15:33:14;7.40;99.90
4749;DHT22;2388;53.582;9.962;2023-03-14T15:35:40;7.40;99.90
4749;DHT22;2388;53.582;9.962;2023-03-14T15:38:13;7.40;99.90
4749;DHT22;2388;53.582;9.962;2023-03-14T15:40:39;7.30;99.90
4749;DHT22;2388;53.582;9.962;2023-03-14T15:43:05;7.20;99.90
4749;DHT22;2388;53.582;9.962;2023-03-14T15:45:31;7.10;99.90
4749;DHT22;2388;53.582;9.962;2023-03-14T15:47:56;7.10;99.90
4749;DHT22;2388;53.582;9.962;2023-03-14T15:50:23;7.10;99.90
4749;DHT22;2388;53.582;9.962;2023-03-14T15:52:50;7.00;99.90
4749;DHT22;2388;53.582;9.962;2023-03-14T15:55:16;7.00;99.90
4749;DHT22;2388;53.582;9.962;2023-03-14T15:57:43;7.00;99.90
4749;DHT22;2388;53.582;9.962;2023-03-14T16:00:14;6.90;99.90
4749;DHT22;2388;53.582;9.962;2023-03-14T16:02:41;6.90;99.90
4749;DHT22;2388;53.582;9.962;2023-03-14T16:05:10;6.90;99.90
4749;DHT22;2388;53.582;9.962;2023-03-14T16:07:37;7.00;99.90
4749;DHT22;2388;53.582;9.962;2023-03-14T16:10:03;7.00;99.90
4749;DHT22;2388;53.582;9.962;2023-03-14T16:12:30;7.10;99.90
4749;DHT22;2388;53.582;9.962;2023-03-14T16:14:55;7.00;99.90
4749;DHT22;2388;53.582;9.962;2023-03-14T16:17:21;7.00;99.90
4749;DHT22;2388;53.582;9.962;2023-03-14T16:19:46;7.00;99.90
4749;DHT22;2388;53.582;9.962;2023-03-14T16:22:12;7.00;99.90
4749;DHT22;2388;53.582;9.962;2023-03-14T16:24:38;6.90;99.90
4749;DHT22;2388;53.582;9.962;2023-03-14T16:27:03;6.80;99.90
4749;DHT22;2388;53.582;9.962;2023-03-14T16:29:29;6.80;99.90
4749;DHT22;2388;53.582;9.962;2023-03-14T16:31:55;6.70;99.90
4749;DHT22;2388;53.582;9.962;2023-03-14T16:34:20;6.70;99.90
4749;DHT22;2388;53.582;9.962;2023-03-14T16:36:46;6.60;99.90
4749;DHT22;2388;53.582;9.962;2023-03-14T16:39:12;6.50;99.90
4749;DHT22;2388;53.582;9.962;2023-03-14T16:41:37;6.60;99.90
4749;DHT22;2388;53.582;9.962;2023-03-14T16:44:03;6.50;99.90
4749;DHT22;2388;53.582;9.962;2023-03-14T16:46:28;6.50;99.90
4749;DHT22;2388;53.582;9.962;2023-03-14T16:48:55;6.50;99.90
4749;DHT22;2388;53.582;9.962;2023-03-14T16:51:21;6.50;99.90
4749;DHT22;2388;53.582;9.962;2023-03-14T16:53:47;6.40;99.90
4749;DHT22;2388;53.582;9.962;2023-03-14T16:56:13;6.40;99.90
4749;DHT22;2388;53.582;9.962;2023-03-14T16:58:39;6.30;99.90
4749;DHT22;2388;53.582;9.962;2023-03-14T17:01:09;6.30;99.90
4749;DHT22;2388;53.582;9.962;2023-03-14T17:03:40;6.30;99.90
4749;DHT22;2388;53.582;9.962;2023-03-14T17:06:06;6.30;99.90
4749;DHT22;2388;53.582;9.962;2023-03-14T17:08:32;6.20;99.90
4749;DHT22;2388;53.582;9.962;2023-03-14T17:10:57;6.20;99.90
4749;DHT22;2388;53.582;9.962;2023-03-14T17:13:23;6.30;99.90
4749;DHT22;2388;53.582;9.962;2023-03-14T17:15:58;6.20;99.90
4749;DHT22;2388;53.582;9.962;2023-03-14T17:18:25;6.10;99.90
4749;DHT22;2388;53.582;9.962;2023-03-14T17:20:51;6.10;99.90
4749;DHT22;2388;53.582;9.962;2023-03-14T17:23:17;6.10;99.90
4749;DHT22;2388;53.582;9.962;2023-03-14T17:25:45;6.20;99.90